Time;durP1;ratioP1;P1;durP2;ratioP2;P2;SDS_P1;SDS_P2;PMS_P1;PMS_P2;Temp;Humidity;BMP_temperature;BMP_pressure;BME280_temperature;BME280_humidity;BME280_pressure;Samples;Min_cycle;Max_cycle;Signal;HPM_P1;HPM_P2
2023/10/11 00:02:56;;;;;;;14.95;6.75;;;16.30;99.90;;;;;;4957798;28;20050;-65
2023/10/11 00:05:22;;;;;;;10.80;6.20;;;16.30;99.90;;;;;;4957074;28;20113;-66
2023/10/11 00:07:48;;;;;;;19.25;6.70;;;16.20;99.90;;;;;;4962050;28;20038;-65
2023/10/11 00:10:22;;;;;;;15.00;6.53;;;16.20;99.90;;;;;;4981535;28;20042;-66
2023/10/11 00:12:52;;;;;;;16.02;7.13;;;16.20;99.90;;;;;;4963359;28;20034;-66
2023/10/11 00:15:17;;;;;;;19.80;7.23;;;16.20;99.90;;;;;;4952747;28;20051;-67
2023/10/11 00:17:46;;;;;;;19.35;7.28;;;16.20;99.90;;;;;;4967515;28;20302;-66
2023/10/11 00:20:28;;;;;;;18.25;7.00;;;16.20;99.90;;;;;;4978355;28;20257;-65
2023/10/11 00:22:54;;;;;;;15.77;7.63;;;16.10;99.90;;;;;;4955023;28;20038;-65
2023/10/11 00:25:29;;;;;;;18.63;7.95;;;16.10;99.90;;;;;;4973701;28;20885;-66
2023/10/11 00:27:58;;;;;;;17.85;7.10;;;16.10;99.90;;;;;;4975523;28;20101;-67
2023/10/11 00:30:29;;;;;;;17.02;7.57;;;16.10;99.90;;;;;;4955264;28;20134;-65
2023/10/11 00:32:56;;;;;;;16.30;7.75;;;16.10;99.90;;;;;;4980068;28;20076;-66
2023/10/11 00:35:24;;;;;;;15.00;7.53;;;16.10;99.90;;;;;;4955322;28;20532;-65
2023/10/11 00:37:54;;;;;;;17.08;7.93;;;16.00;99.90;;;;;;4958161;28;20667;-66
2023/10/11 00:40:32;;;;;;;16.00;7.40;;;16.00;99.90;;;;;;4964034;28;20045;-67
2023/10/11 00:42:59;;;;;;;15.20;7.90;;;16.00;99.90;;;;;;4956611;28;20621;-66
2023/10/11 00:45:31;;;;;;;18.08;7.68;;;16.00;99.90;;;;;;4961272;28;21673;-66
2023/10/11 00:48:06;;;;;;;17.55;8.10;;;16.00;99.90;;;;;;4985608;28;20104;-65
2023/10/11 00:50:32;;;;;;;14.55;7.75;;;16.00;99.90;;;;;;4984194;28;20039;-64
2023/10/11 00:53:00;;;;;;;17.50;8.63;;;16.00;99.90;;;;;;4961315;28;20097;-66
2023/10/11 00:55:29;;;;;;;20.33;8.55;;;16.00;99.90;;;;;;4973656;28;20038;-67
2023/10/11 00:57:55;;;;;;;22.70;8.55;;;16.00;99.90;;;;;;4983151;28;20462;-65
2023/10/11 01:00:23;;;;;;;16.63;8.05;;;16.00;99.90;;;;;;4961708;28;20134;-66
2023/10/11 01:02:50;;;;;;;21.00;8.35;;;15.90;99.90;;;;;;4984358;28;20038;-66
2023/10/11 01:05:17;;;;;;;18.77;8.77;;;15.90;99.90;;;;;;4963983;28;20533;-66
2023/10/11 01:07:44;;;;;;;17.25;8.27;;;15.90;99.90;;;;;;4959124;28;20374;-65
2023/10/11 01:10:10;;;;;;;20.08;8.60;;;15.90;99.90;;;;;;4949962;28;20050;-67
2023/10/11 01:12:36;;;;;;;19.40;8.40;;;15.90;99.90;;;;;;4963368;28;20178;-66
2023/10/11 01:15:02;;;;;;;19.10;8.68;;;15.90;99.90;;;;;;4980452;28;20122;-67
2023/10/11 01:17:31;;;;;;;24.92;9.45;;;15.90;99.90;;;;;;4979442;28;20039;-65
2023/10/11 01:19:59;;;;;;;22.05;9.30;;;15.90;99.90;;;;;;4985459;28;20083;-66
2023/10/11 01:22:28;;;;;;;19.33;9.10;;;15.90;99.90;;;;;;4986830;28;20054;-65
2023/10/11 01:24:55;;;;;;;20.52;8.98;;;15.90;99.90;;;;;;4981022;28;20038;-66
2023/10/11 01:27:25;;;;;;;18.02;8.85;;;15.90;99.90;;;;;;4979390;28;20054;-67
2023/10/11 01:29:51;;;;;;;21.92;8.68;;;15.90;99.90;;;;;;4962111;28;20042;-66
2023/10/11 01:32:17;;;;;;;22.27;9.48;;;15.80;99.90;;;;;;4975643;28;20065;-66
2023/10/11 01:34:44;;;;;;;23.63;9.93;;;15.90;99.90;;;;;;4976225;28;20073;-66
2023/10/11 01:37:10;;;;;;;24.38;10.23;;;15.80;99.90;;;;;;4963417;28;20225;-66
2023/10/11 01:39:35;;;;;;;20.98;10.70;;;15.80;99.90;;;;;;4987500;28;20177;-66
2023/10/11 01:42:01;;;;;;;20.42;9.43;;;15.80;99.90;;;;;;4964900;28;20053;-66
2023/10/11 01:44:27;;;;;;;22.75;9.48;;;15.80;99.90;;;;;;4985827;28;20049;-66
2023/10/11 01:46:53;;;;;;;22.02;10.40;;;15.80;99.90;;;;;;4965943;28;20053;-65
2023/10/11 01:49:19;;;;;;;21.30;10.00;;;15.80;99.90;;;;;;4970693;28;20378;-67
2023/10/11 01:51:47;;;;;;;23.90;11.25;;;15.70;99.90;;;;;;4993494;28;20121;-65
2023/10/11 01:54:15;;;;;;;25.02;11.13;;;15.80;99.90;;;;;;4980574;28;20117;-66
2023/10/11 01:56:41;;;;;;;23.27;10.73;;;15.70;99.90;;;;;;4981154;28;20054;-66
2023/10/11 01:59:11;;;;;;;23.40;10.88;;;15.70;99.90;;;;;;4981484;28;20138;-66
2023/10/11 02:01:40;;;;;;;25.70;12.48;;;15.70;99.90;;;;;;4949919;28;20042;-66
2023/10/11 02:04:10;;;;;;;28.25;11.60;;;15.80;99.90;;;;;;4964138;28;20836;-66
2023/10/11 02:06:38;;;;;;;26.35;11.77;;;15.80;99.90;;;;;;4980067;28;20041;-65
2023/10/11 02:09:04;;;;;;;26.77;11.35;;;15.70;99.90;;;;;;4965108;28;20026;-67
2023/10/11 02:11:29;;;;;;;21.17;11.35;;;15.80;99.90;;;;;;4963338;28;20433;-66
2023/10/11 02:14:00;;;;;;;29.85;12.00;;;15.70;99.90;;;;;;4978641;28;20042;-65
2023/10/11 02:16:28;;;;;;;23.60;11.00;;;15.80;99.90;;;;;;4983299;28;20034;-67
2023/10/11 02:19:00;;;;;;;31.25;11.85;;;15.70;99.90;;;;;;4969846;28;20502;-66
2023/10/11 02:21:29;;;;;;;22.65;11.50;;;15.70;99.90;;;;;;4983299;28;20046;-66
2023/10/11 02:23:56;;;;;;;28.98;12.13;;;15.70;99.90;;;;;;4960246;28;20049;-67
2023/10/11 02:26:29;;;;;;;30.92;11.82;;;15.70;99.90;;;;;;4979961;28;20042;-66
2023/10/11 02:28:58;;;;;;;25.83;13.25;;;15.70;99.90;;;;;;4960826;28;20416;-66
2023/10/11 02:31:25;;;;;;;29.73;12.10;;;15.60;99.90;;;;;;4965625;28;20054;-65
2023/10/11 02:33:51;;;;;;;30.25;12.38;;;15.60;99.90;;;;;;4955001;28;20705;-66
2023/10/11 02:36:18;;;;;;;29.85;12.27;;;15.60;99.90;;;;;;4980152;28;20047;-65
2023/10/11 02:38:50;;;;;;;26.23;11.95;;;15.60;99.90;;;;;;4962625;28;20073;-66
2023/10/11 02:41:21;;;;;;;27.30;11.93;;;15.60;99.90;;;;;;4982279;28;20050;-65
2023/10/11 02:43:50;;;;;;;27.92;13.27;;;15.60;99.90;;;;;;4984116;28;20139;-67
2023/10/11 02:46:16;;;;;;;27.63;12.13;;;15.60;99.90;;;;;;4978888;28;20042;-67
2023/10/11 02:48:46;;;;;;;27.85;12.45;;;15.60;99.90;;;;;;4966241;28;20487;-66
2023/10/11 02:51:16;;;;;;;25.75;13.25;;;15.60;99.90;;;;;;4975952;28;20072;-65
2023/10/11 02:53:43;;;;;;;26.70;13.30;;;15.60;99.90;;;;;;4980446;28;20347;-66
2023/10/11 02:56:10;;;;;;;25.55;12.73;;;15.60;99.90;;;;;;4977755;28;20077;-65
2023/10/11 02:58:39;;;;;;;28.15;12.15;;;15.60;99.90;;;;;;4951279;28;20046;-66
2023/10/11 03:01:14;;;;;;;28.00;13.52;;;15.60;99.90;;;;;;4960768;28;20038;-66
2023/10/11 03:03:41;;;;;;;29.02;13.32;;;15.60;99.90;;;;;;4980581;28;20707;-66
2023/10/11 03:06:07;;;;;;;33.40;13.68;;;15.60;99.90;;;;;;4960367;28;20044;-65
2023/10/11 03:08:33;;;;;;;28.33;12.57;;;15.70;99.90;;;;;;4966762;28;20121;-67
2023/10/11 03:11:04;;;;;;;28.60;12.55;;;15.60;99.90;;;;;;4965077;28;20085;-66
2023/10/11 03:13:31;;;;;;;29.98;12.60;;;15.60;99.90;;;;;;4977213;28;20058;-67
2023/10/11 03:15:58;;;;;;;29.67;12.02;;;15.50;99.90;;;;;;4964299;28;20056;-66
2023/10/11 03:18:25;;;;;;;29.52;12.65;;;15.60;99.90;;;;;;4959921;28;20541;-66
2023/10/11 03:23:36;;;;;;;29.17;12.43;;;15.50;99.90;;;;;;4982598;28;20108;-67
2023/10/11 03:26:16;;;;;;;26.27;12.18;;;15.50;99.90;;;;;;4965327;28;20031;-67
2023/10/11 03:28:42;;;;;;;33.50;13.30;;;15.50;99.90;;;;;;4963830;28;20042;-66
2023/10/11 03:31:08;;;;;;;26.08;12.90;;;15.50;99.90;;;;;;4961639;28;20042;-65
2023/10/11 03:33:36;;;;;;;27.98;12.65;;;15.40;99.90;;;;;;4975120;28;20105;-66
2023/10/11 03:36:05;;;;;;;27.63;12.00;;;15.40;99.90;;;;;;4959760;28;20049;-65
2023/10/11 03:38:33;;;;;;;30.42;12.40;;;15.40;99.90;;;;;;4974697;28;20065;-65
2023/10/11 03:41:14;;;;;;;29.50;13.05;;;15.30;99.90;;;;;;4967242;28;20509;-65
2023/10/11 03:43:41;;;;;;;29.02;11.75;;;15.40;99.90;;;;;;4967083;28;20082;-66
2023/10/11 03:46:10;;;;;;;29.20;13.10;;;15.40;99.90;;;;;;4961529;28;20061;-66
2023/10/11 03:48:51;;;;;;;26.65;11.52;;;15.40;99.90;;;;;;4985610;28;20128;-65
2023/10/11 03:51:19;;;;;;;28.65;12.10;;;15.30;99.90;;;;;;4960051;28;20042;-66
2023/10/11 03:53:47;;;;;;;27.73;12.20;;;15.40;99.90;;;;;;4977086;28;20117;-66
2023/10/11 03:56:13;;;;;;;27.08;11.95;;;15.40;99.90;;;;;;4956156;28;20459;-69
2023/10/11 03:58:39;;;;;;;28.55;11.63;;;15.40;99.90;;;;;;4977580;28;20445;-66
2023/10/11 04:01:23;;;;;;;28.17;12.65;;;15.40;99.90;;;;;;4960561;28;20038;-66
2023/10/11 04:03:49;;;;;;;23.25;11.65;;;15.50;99.90;;;;;;4961385;28;20129;-67
2023/10/11 04:06:15;;;;;;;25.35;11.30;;;15.50;99.90;;;;;;4961753;28;20494;-66
2023/10/11 04:09:02;;;;;;;26.23;11.88;;;15.50;99.90;;;;;;4976911;28;20374;-66
2023/10/11 04:11:36;;;;;;;22.77;11.15;;;15.60;99.90;;;;;;4960273;28;20483;-65
2023/10/11 04:14:02;;;;;;;25.52;10.93;;;15.50;99.90;;;;;;4986192;28;20470;-66
2023/10/11 04:16:28;;;;;;;22.40;11.20;;;15.60;99.90;;;;;;4961914;28;20057;-66
2023/10/11 04:18:54;;;;;;;29.73;12.32;;;15.60;99.90;;;;;;4976060;28;20146;-67
2023/10/11 04:21:26;;;;;;;28.80;11.48;;;15.60;99.90;;;;;;4976656;28;20459;-66
2023/10/11 04:23:58;;;;;;;23.98;10.60;;;15.60;99.90;;;;;;4962418;28;20158;-66
2023/10/11 04:26:42;;;;;;;23.45;11.13;;;15.60;99.90;;;;;;4966083;28;20037;-69
2023/10/11 04:29:16;;;;;;;28.48;10.98;;;15.70;99.90;;;;;;4980354;28;21069;-66
2023/10/11 04:34:23;;;;;;;22.63;10.75;;;15.70;99.90;;;;;;4966830;28;20061;-67
2023/10/11 04:36:55;;;;;;;23.27;10.77;;;15.70;99.90;;;;;;4981766;28;20165;-65
2023/10/11 04:39:27;;;;;;;28.65;11.68;;;15.70;99.90;;;;;;4968922;28;20046;-66
2023/10/11 04:41:57;;;;;;;27.73;12.00;;;15.70;99.90;;;;;;4963710;28;20669;-65
2023/10/11 04:44:42;;;;;;;23.97;10.57;;;15.60;99.90;;;;;;4966698;28;20077;-66
2023/10/11 04:47:09;;;;;;;25.30;10.93;;;15.60;99.90;;;;;;4989887;28;20297;-66
2023/10/11 04:49:35;;;;;;;22.83;11.18;;;15.50;99.90;;;;;;4983486;28;20461;-66
2023/10/11 04:52:10;;;;;;;23.23;11.68;;;15.50;99.90;;;;;;4966901;28;20101;-67
2023/10/11 04:54:36;;;;;;;29.02;12.00;;;15.50;99.90;;;;;;4988373;28;20078;-66
2023/10/11 04:57:16;;;;;;;26.45;11.48;;;15.50;99.90;;;;;;4982302;28;20221;-65
2023/10/11 04:59:42;;;;;;;34.00;11.15;;;15.50;99.90;;;;;;4971446;28;20046;-66
2023/10/11 05:02:32;;;;;;;25.70;11.05;;;15.50;99.90;;;;;;4962456;28;20031;-66
2023/10/11 05:04:56;;;;;;;29.98;12.70;;;15.50;99.90;;;;;;4960989;28;20058;-65
2023/10/11 05:07:22;;;;;;;28.20;11.57;;;15.50;99.90;;;;;;4969821;28;20038;-67
2023/10/11 05:10:22;;;;;;;22.10;11.73;;;15.50;99.90;;;;;;4985905;28;20061;-66
2023/10/11 05:12:47;;;;;;;21.17;11.02;;;15.50;99.90;;;;;;4964728;28;20669;-67
2023/10/11 05:15:15;;;;;;;29.65;12.07;;;15.50;99.90;;;;;;4985338;28;20113;-66
2023/10/11 05:17:42;;;;;;;25.05;11.40;;;15.50;99.90;;;;;;4986475;28;20046;-66
2023/10/11 05:32:32;;;;;;;;;;;15.50;99.90;;;;;;4981195;28;20383;-66
2023/10/11 05:51:27;;;;;;;26.98;11.50;;;15.40;99.90;;;;;;4966032;28;20038;-65
2023/10/11 05:53:54;;;;;;;27.15;12.43;;;15.40;99.90;;;;;;4961589;28;20038;-65
2023/10/11 05:56:22;;;;;;;27.65;13.05;;;15.40;99.90;;;;;;4964453;28;20218;-66
2023/10/11 05:58:53;;;;;;;30.70;12.85;;;15.40;99.90;;;;;;4962093;28;20185;-67
2023/10/11 06:01:21;;;;;;;28.90;13.10;;;15.30;99.90;;;;;;4974210;28;20052;-65
2023/10/11 06:03:51;;;;;;;31.52;13.57;;;15.30;99.90;;;;;;4964546;28;20450;-66
2023/10/11 06:06:23;;;;;;;33.95;13.00;;;15.40;99.90;;;;;;4962980;28;20147;-66
2023/10/11 06:08:54;;;;;;;35.55;13.57;;;15.30;99.90;;;;;;4973161;28;20112;-67
2023/10/11 06:11:20;;;;;;;;;;;15.30;99.90;;;;;;4965835;28;20045;-65
2023/10/11 06:13:47;;;;;;;33.88;12.40;;;15.30;99.90;;;;;;4985707;28;20296;-66
2023/10/11 06:16:13;;;;;;;32.75;12.43;;;15.30;99.90;;;;;;4970320;28;20042;-65
2023/10/11 06:18:42;;;;;;;30.15;13.15;;;15.30;99.90;;;;;;4979646;28;20232;-65
2023/10/11 06:23:57;;;;;;;35.70;13.95;;;15.30;99.90;;;;;;4980616;28;20051;-67
2023/10/11 06:26:28;;;;;;;30.25;12.35;;;15.30;99.90;;;;;;4978715;28;20121;-66
2023/10/11 06:29:03;;;;;;;33.85;13.65;;;15.30;99.90;;;;;;4978556;28;20093;-66
2023/10/11 06:31:43;;;;;;;30.65;14.00;;;15.40;99.90;;;;;;4977710;28;20038;-65
2023/10/11 06:34:15;;;;;;;;;;;15.40;99.90;;;;;;4961210;28;20124;-66
2023/10/11 06:36:51;;;;;;;28.67;13.00;;;15.40;99.90;;;;;;4960473;28;20388;-66
2023/10/11 06:40:08;;;;;;;30.98;13.40;;;15.40;99.90;;;;;;4958979;28;20069;-65
2023/10/11 06:42:21;;;;;;;33.42;13.95;;;15.50;99.90;;;;;;4964630;28;20121;-66
2023/10/11 06:44:52;;;;;;;32.13;12.65;;;15.50;99.90;;;;;;4958458;28;20049;-65
2023/10/11 06:47:20;;;;;;;27.42;13.15;;;15.60;99.90;;;;;;4984258;28;20399;-66
2023/10/11 06:49:54;;;;;;;33.53;14.50;;;15.60;99.90;;;;;;4978148;28;20034;-66
2023/10/11 06:52:25;;;;;;;42.17;15.05;;;15.60;99.90;;;;;;4947743;28;20062;-65
2023/10/11 06:55:07;;;;;;;;;;;15.70;99.90;;;;;;4961267;28;20149;-66
2023/10/11 06:57:38;;;;;;;38.67;13.65;;;15.80;99.90;;;;;;4963827;28;19925;-66
2023/10/11 07:00:20;;;;;;;29.27;13.57;;;15.80;99.90;;;;;;4960691;28;20053;-66
2023/10/11 07:03:07;;;;;;;33.78;14.23;;;15.90;99.90;;;;;;4964281;28;20038;-65
2023/10/11 07:05:56;;;;;;;26.17;13.80;;;15.90;99.90;;;;;;4980731;28;20141;-67
2023/10/11 07:08:31;;;;;;;33.23;14.13;;;16.00;99.90;;;;;;4988996;28;20452;-66
2023/10/11 07:11:16;;;;;;;32.10;14.57;;;16.00;99.90;;;;;;4987462;28;20682;-66
2023/10/11 07:14:00;;;;;;;31.35;13.48;;;16.00;99.90;;;;;;4971199;28;20128;-66
2023/10/11 07:16:29;;;;;;;39.30;14.73;;;16.00;99.90;;;;;;4967026;28;20050;-66
2023/10/11 07:18:57;;;;;;;37.28;14.50;;;16.00;99.90;;;;;;4979465;28;20612;-67
2023/10/11 07:21:26;;;;;;;38.60;14.55;;;16.00;99.90;;;;;;4977826;28;20446;-67
2023/10/11 07:28:59;;;;;;;28.50;14.52;;;16.10;99.90;;;;;;4986191;28;20042;-66
2023/10/11 07:31:37;;;;;;;33.72;14.13;;;16.10;99.90;;;;;;4970509;28;20038;-67
2023/10/11 07:34:09;;;;;;;43.90;16.85;;;16.10;99.90;;;;;;4957662;28;20046;-66
2023/10/11 07:36:37;;;;;;;36.45;14.98;;;16.20;99.90;;;;;;4966199;28;20443;-64
2023/10/11 07:42:02;;;;;;;30.52;15.55;;;16.20;99.90;;;;;;4966510;28;20058;-66
2023/10/11 07:44:30;;;;;;;36.65;15.32;;;16.20;99.90;;;;;;4962490;28;20522;-66
2023/10/11 07:46:56;;;;;;;40.85;15.52;;;16.20;99.90;;;;;;4985715;28;20956;-65
2023/10/11 07:49:25;;;;;;;36.08;15.20;;;16.20;99.90;;;;;;4983759;28;20050;-67
2023/10/11 07:51:58;;;;;;;36.25;15.25;;;16.20;99.90;;;;;;4984698;28;20124;-66
2023/10/11 07:54:25;;;;;;;41.83;15.85;;;16.20;99.90;;;;;;4965218;28;20381;-65
2023/10/11 07:56:55;;;;;;;40.58;16.75;;;16.20;99.90;;;;;;4986983;28;20805;-67
2023/10/11 07:59:26;;;;;;;30.55;14.60;;;16.20;99.90;;;;;;4987467;28;20085;-66
2023/10/11 08:01:56;;;;;;;33.45;14.80;;;16.20;99.90;;;;;;4982938;28;20054;-66
2023/10/11 08:04:22;;;;;;;44.92;15.70;;;16.30;99.90;;;;;;4968583;28;20587;-67
2023/10/11 08:06:59;;;;;;;32.95;15.10;;;16.30;99.90;;;;;;4968153;28;20181;-67
2023/10/11 08:09:45;;;;;;;34.97;15.82;;;16.30;99.90;;;;;;4971498;28;20334;-66
2023/10/11 08:12:14;;;;;;;40.28;16.50;;;16.30;99.90;;;;;;4991938;28;20034;-65
2023/10/11 08:14:45;;;;;;;48.20;16.52;;;16.40;99.90;;;;;;4985521;28;20119;-71
2023/10/11 08:17:19;;;;;;;39.95;16.50;;;16.40;99.90;;;;;;4990302;28;20034;-66
2023/10/11 08:19:46;;;;;;;43.30;16.95;;;16.40;99.90;;;;;;4981935;28;20093;-66
2023/10/11 08:22:14;;;;;;;43.88;17.40;;;16.30;99.90;;;;;;4973335;28;20050;-65
2023/10/11 08:24:49;;;;;;;39.35;16.73;;;16.40;99.90;;;;;;4973800;28;20042;-65
2023/10/11 08:27:27;;;;;;;46.20;17.65;;;16.40;99.90;;;;;;4992146;28;20545;-65
2023/10/11 08:30:16;;;;;;;35.50;17.60;;;16.40;99.90;;;;;;4969169;28;20046;-64
2023/10/11 08:32:46;;;;;;;49.70;18.55;;;16.30;99.90;;;;;;4972044;28;20053;-65
2023/10/11 08:35:55;;;;;;;;;;;16.30;99.90;;;;;;4989977;28;20137;-66
2023/10/11 08:38:12;;;;;;;42.13;17.08;;;16.30;99.90;;;;;;4986157;28;21644;-66
2023/10/11 08:40:40;;;;;;;46.53;18.95;;;16.20;99.90;;;;;;4963981;28;20181;-66
2023/10/11 08:43:07;;;;;;;43.33;18.98;;;16.20;99.90;;;;;;4974172;28;20042;-67
2023/10/11 08:46:08;;;;;;;47.58;19.13;;;16.20;99.90;;;;;;4970284;28;20564;-66
2023/10/11 08:48:38;;;;;;;49.13;20.50;;;16.20;99.90;;;;;;4962915;28;20047;-67
2023/10/11 08:51:10;;;;;;;40.17;18.23;;;16.20;99.90;;;;;;4958335;28;20117;-67
2023/10/11 08:53:38;;;;;;;45.40;18.77;;;16.20;99.90;;;;;;4957249;28;20046;-66
2023/10/11 08:56:04;;;;;;;54.53;20.40;;;16.20;99.90;;;;;;4991588;28;20115;-69
2023/10/11 08:58:36;;;;;;;45.72;19.58;;;16.20;99.90;;;;;;4970686;28;20042;-66
2023/10/11 09:01:01;;;;;;;43.75;20.92;;;16.20;99.90;;;;;;4989356;28;20117;-68
2023/10/11 09:03:36;;;;;;;51.92;20.55;;;16.10;99.90;;;;;;4988743;28;20117;-66
2023/10/11 09:06:02;;;;;;;45.95;19.27;;;16.10;99.90;;;;;;4986051;28;20038;-67
2023/10/11 09:08:35;;;;;;;43.10;20.73;;;16.10;99.90;;;;;;4973094;28;20385;-66
2023/10/11 09:11:12;;;;;;;43.00;18.92;;;16.10;99.90;;;;;;4974236;28;20046;-66
2023/10/11 09:13:39;;;;;;;49.50;19.42;;;16.10;99.90;;;;;;4972158;28;20084;-68
2023/10/11 09:16:14;;;;;;;48.15;19.83;;;16.10;99.90;;;;;;4990140;28;20141;-66
2023/10/11 09:18:41;;;;;;;50.72;19.88;;;16.10;99.90;;;;;;4955370;28;20093;-67
2023/10/11 09:21:17;;;;;;;44.88;19.38;;;16.10;99.90;;;;;;4981838;28;20042;-67
2023/10/11 09:23:47;;;;;;;42.78;18.95;;;16.10;99.90;;;;;;4974122;28;20046;-67
2023/10/11 09:26:21;;;;;;;52.78;21.08;;;16.10;99.90;;;;;;4991108;28;20035;-67
2023/10/11 09:28:56;;;;;;;40.90;18.88;;;16.20;99.90;;;;;;4971827;28;20038;-67
2023/10/11 09:31:23;;;;;;;42.05;18.63;;;16.20;99.90;;;;;;4990501;28;20042;-66
2023/10/11 09:33:52;;;;;;;39.35;18.55;;;16.20;99.90;;;;;;4962969;28;20098;-68
2023/10/11 09:36:20;;;;;;;41.65;18.70;;;16.30;99.90;;;;;;4964904;28;20046;-66
2023/10/11 09:38:54;;;;;;;44.08;19.13;;;16.30;99.90;;;;;;4989608;28;20050;-64
2023/10/11 09:41:28;;;;;;;41.03;17.90;;;16.30;99.90;;;;;;4973849;28;20605;-67
2023/10/11 09:43:57;;;;;;;44.42;16.92;;;16.40;99.90;;;;;;4972976;28;20085;-65
2023/10/11 09:46:29;;;;;;;34.75;16.40;;;16.30;99.90;;;;;;4967886;28;20042;-65
2023/10/11 09:48:56;;;;;;;38.20;16.30;;;16.40;99.90;;;;;;4984935;28;20394;-65
2023/10/11 09:51:24;;;;;;;32.50;14.45;;;16.40;99.90;;;;;;4971004;28;20368;-65
2023/10/11 09:53:51;;;;;;;32.88;15.43;;;16.40;99.90;;;;;;4975618;28;20378;-64
2023/10/11 09:56:48;;;;;;;35.28;16.58;;;16.50;99.90;;;;;;4968000;28;20050;-64
2023/10/11 09:59:35;;;;;;;33.72;14.13;;;16.50;99.90;;;;;;4965255;28;20049;-65
2023/10/11 10:02:19;;;;;;;34.78;13.48;;;16.50;99.90;;;;;;4977007;28;20046;-64
2023/10/11 10:04:49;;;;;;;33.08;13.65;;;16.60;99.90;;;;;;4985491;28;20133;-65
2023/10/11 10:07:25;;;;;;;25.15;13.10;;;16.60;99.90;;;;;;4982551;28;20097;-66
2023/10/11 10:10:00;;;;;;;25.00;11.80;;;16.70;99.90;;;;;;4971038;28;20122;-66
2023/10/11 10:12:31;;;;;;;26.35;12.02;;;16.70;99.90;;;;;;4973861;28;20077;-65
2023/10/11 10:15:03;;;;;;;28.50;12.65;;;16.80;99.90;;;;;;4984291;28;20100;-64
2023/10/11 10:17:28;;;;;;;24.15;11.48;;;16.90;99.90;;;;;;4983419;28;20394;-65
2023/10/11 10:20:00;;;;;;;21.25;11.00;;;17.00;99.90;;;;;;4987485;28;20050;-66
2023/10/11 10:22:31;;;;;;;23.10;10.85;;;17.10;99.90;;;;;;4979883;28;20046;-65
2023/10/11 10:25:20;;;;;;;26.30;10.00;;;17.30;99.90;;;;;;4976549;28;20065;-65
2023/10/11 10:27:46;;;;;;;19.25;9.07;;;17.50;99.90;;;;;;4986658;28;20113;-65
2023/10/11 10:30:16;;;;;;;20.25;9.30;;;17.50;99.90;;;;;;4971058;28;20115;-64
2023/10/11 10:33:21;;;;;;;22.63;8.52;;;17.60;99.90;;;;;;4970387;28;20098;-65
2023/10/11 10:35:48;;;;;;;17.33;8.50;;;17.60;99.90;;;;;;4955876;28;20034;-68
2023/10/11 10:38:14;;;;;;;13.75;6.97;;;17.60;99.90;;;;;;4959618;28;20085;-65
2023/10/11 10:40:45;;;;;;;15.38;7.35;;;17.60;99.90;;;;;;4989163;28;20125;-66
2023/10/11 10:43:22;;;;;;;12.85;6.30;;;17.70;99.90;;;;;;4976666;28;20038;-65
2023/10/11 10:45:52;;;;;;;12.43;6.80;;;17.80;99.90;;;;;;4987680;28;20062;-65
2023/10/11 10:48:23;;;;;;;14.85;6.03;;;17.80;99.90;;;;;;4986939;28;20097;-65
2023/10/11 10:51:01;;;;;;;14.10;6.50;;;17.80;99.90;;;;;;4986499;28;20050;-65
2023/10/11 10:53:39;;;;;;;16.60;6.30;;;17.60;99.90;;;;;;4966982;28;20034;-64
2023/10/11 10:56:18;;;;;;;14.95;6.85;;;17.50;99.90;;;;;;4971751;28;20085;-65
2023/10/11 10:58:44;;;;;;;16.13;6.68;;;17.40;99.90;;;;;;4991597;28;20057;-65
2023/10/11 11:01:09;;;;;;;14.68;6.15;;;17.40;99.90;;;;;;4980523;28;20073;-66
2023/10/11 11:03:35;;;;;;;17.88;6.95;;;17.40;99.90;;;;;;4967209;28;20062;-66
2023/10/11 11:06:02;;;;;;;14.38;5.63;;;17.40;99.90;;;;;;4966973;28;20093;-66
2023/10/11 11:08:31;;;;;;;11.85;6.57;;;17.50;99.90;;;;;;4975550;28;20133;-64
2023/10/11 11:11:25;;;;;;;12.20;5.60;;;17.60;99.90;;;;;;4988834;28;20050;-65
2023/10/11 11:13:54;;;;;;;11.50;5.55;;;17.80;99.90;;;;;;4970604;28;20605;-66
2023/10/11 11:16:28;;;;;;;11.18;5.78;;;18.00;99.90;;;;;;4977325;28;20094;-67
2023/10/11 11:19:00;;;;;;;19.77;5.47;;;18.00;99.90;;;;;;4969557;28;20093;-66
2023/10/11 11:21:29;;;;;;;12.65;5.40;;;18.10;99.90;;;;;;4971348;28;20521;-66
2023/10/11 11:24:14;;;;;;;8.98;4.93;;;18.30;99.90;;;;;;4983159;28;20073;-66
2023/10/11 11:26:40;;;;;;;11.45;4.03;;;18.40;99.90;;;;;;4979444;28;20034;-67
2023/10/11 11:29:16;;;;;;;8.93;4.40;;;18.40;99.90;;;;;;4967268;28;20061;-66
2023/10/11 11:31:53;;;;;;;9.57;4.53;;;18.50;99.90;;;;;;4966570;28;20056;-66
2023/10/11 11:34:28;;;;;;;10.20;4.28;;;18.70;99.90;;;;;;4976947;28;20050;-66
2023/10/11 11:37:20;;;;;;;12.73;4.45;;;18.90;99.90;;;;;;4983724;28;20360;-66
2023/10/11 11:39:52;;;;;;;7.38;4.30;;;18.90;99.90;;;;;;4953678;28;20038;-68
2023/10/11 11:42:20;;;;;;;6.88;3.78;;;19.00;99.90;;;;;;4980556;28;20053;-66
2023/10/11 11:44:46;;;;;;;8.35;4.05;;;19.00;99.90;;;;;;4971399;28;20078;-66
2023/10/11 11:47:20;;;;;;;10.02;3.90;;;19.10;99.90;;;;;;4952941;28;20111;-66
2023/10/11 11:49:47;;;;;;;10.15;3.90;;;19.10;99.90;;;;;;4984721;28;20513;-66
2023/10/11 11:52:16;;;;;;;9.50;3.75;;;19.20;99.90;;;;;;4967229;28;20042;-65
2023/10/11 11:54:43;;;;;;;8.80;4.20;;;19.10;99.90;;;;;;4968222;28;20042;-66
2023/10/11 11:57:09;;;;;;;8.15;3.70;;;19.20;99.90;;;;;;4981940;28;20034;-66
2023/10/11 11:59:35;;;;;;;5.80;3.35;;;19.30;99.90;;;;;;4985781;28;20425;-64
2023/10/11 12:02:01;;;;;;;10.40;3.80;;;19.40;99.90;;;;;;4974081;28;20746;-67
2023/10/11 12:04:32;;;;;;;8.25;3.72;;;19.50;99.90;;;;;;4983123;28;20140;-69
2023/10/11 12:07:05;;;;;;;5.22;3.40;;;19.50;99.90;;;;;;4947496;28;20383;-68
2023/10/11 12:09:34;;;;;;;10.95;4.35;;;19.50;99.90;;;;;;4986344;28;20109;-68
2023/10/11 12:12:05;;;;;;;8.40;3.50;;;19.50;99.90;;;;;;4966636;28;20042;-68
2023/10/11 12:14:37;;;;;;;8.35;3.58;;;19.60;99.90;;;;;;4959240;28;20074;-67
2023/10/11 12:17:09;;;;;;;8.15;3.47;;;19.70;99.90;;;;;;4967440;28;20098;-70
2023/10/11 12:19:44;;;;;;;8.82;3.65;;;19.60;99.90;;;;;;4962765;28;20130;-68
2023/10/11 12:22:14;;;;;;;7.50;4.00;;;19.50;99.90;;;;;;4963844;28;20043;-74
2023/10/11 12:24:44;;;;;;;9.02;3.88;;;19.60;99.90;;;;;;4962682;28;20561;-68
2023/10/11 12:27:11;;;;;;;9.30;3.83;;;19.60;99.90;;;;;;4963284;28;20130;-67
2023/10/11 12:29:38;;;;;;;12.70;3.90;;;19.70;99.90;;;;;;4965803;28;20038;-68
2023/10/11 12:32:04;;;;;;;10.43;3.65;;;19.90;99.90;;;;;;4980073;28;20161;-68
2023/10/11 12:34:31;;;;;;;8.38;4.03;;;19.90;99.90;;;;;;4966107;28;20430;-68
2023/10/11 12:36:57;;;;;;;7.85;3.80;;;20.00;99.90;;;;;;4983228;28;20043;-68
2023/10/11 12:39:30;;;;;;;8.13;4.07;;;20.00;99.90;;;;;;4964947;28;20082;-67
2023/10/11 12:41:59;;;;;;;9.77;3.60;;;20.00;99.90;;;;;;4951394;28;20058;-69
2023/10/11 12:44:25;;;;;;;12.15;3.85;;;20.00;99.90;;;;;;4961611;28;20487;-68
2023/10/11 12:46:51;;;;;;;10.10;3.60;;;20.00;99.90;;;;;;4952889;28;20046;-70
2023/10/11 12:49:18;;;;;;;12.68;3.70;;;20.00;99.90;;;;;;4966357;28;20038;-71
2023/10/11 12:51:45;;;;;;;11.02;3.60;;;19.90;99.90;;;;;;4969018;28;20077;-71
2023/10/11 12:54:15;;;;;;;9.57;3.70;;;20.00;99.90;;;;;;4961161;28;20043;-68
2023/10/11 12:56:44;;;;;;;10.25;3.55;;;19.90;99.90;;;;;;4958061;28;20561;-67
2023/10/11 12:59:12;;;;;;;8.02;3.63;;;19.80;99.90;;;;;;4972602;28;20042;-66
2023/10/11 13:01:49;;;;;;;13.23;3.70;;;19.80;99.90;;;;;;4967439;28;20035;-67
2023/10/11 13:04:24;;;;;;;7.28;3.05;;;19.70;99.90;;;;;;4955807;28;20853;-68
2023/10/11 13:06:52;;;;;;;9.73;3.20;;;19.70;99.90;;;;;;4971183;28;20038;-67
2023/10/11 13:09:27;;;;;;;8.85;3.10;;;19.70;99.90;;;;;;4965765;28;20035;-67
2023/10/11 13:11:56;;;;;;;4.93;3.13;;;19.60;99.90;;;;;;4972097;28;20398;-68
2023/10/11 13:14:22;;;;;;;7.20;3.50;;;19.50;99.90;;;;;;4958683;28;20078;-67
2023/10/11 13:16:51;;;;;;;8.32;3.20;;;19.50;99.90;;;;;;4969442;28;20081;-69
2023/10/11 13:19:22;;;;;;;10.10;3.20;;;19.50;99.90;;;;;;4961946;28;20130;-71
2023/10/11 13:21:48;;;;;;;9.23;3.10;;;19.50;99.90;;;;;;4952878;28;20054;-67
2023/10/11 13:24:22;;;;;;;8.55;3.25;;;19.60;99.90;;;;;;4970968;28;20133;-67
2023/10/11 13:26:58;;;;;;;5.70;3.20;;;19.60;99.90;;;;;;4972077;28;20043;-67
2023/10/11 13:29:25;;;;;;;6.45;2.92;;;19.50;99.90;;;;;;4952402;28;20038;-67
2023/10/11 13:31:56;;;;;;;11.75;4.05;;;19.60;99.90;;;;;;4973894;28;20383;-70
2023/10/11 13:34:29;;;;;;;8.32;3.35;;;19.70;99.90;;;;;;4967398;28;20053;-70
2023/10/11 13:36:58;;;;;;;9.25;3.13;;;19.70;99.90;;;;;;4970381;28;20146;-69
2023/10/11 13:39:28;;;;;;;5.13;2.72;;;19.70;99.90;;;;;;4967989;28;20113;-67